sensor_id;sensor_type;location;lat;lon;timestamp;pressure;altitude;pressure_sealevel;temperature;humidity
53940;BME280;39850;43.324;21.916;2023-02-21T00:01:23;998.0;;;7.4;65.0
53940;BME280;39850;43.324;21.916;2023-02-21T00:06:00;998.0;;;7.4;65.0
53940;BME280;39850;43.324;21.916;2023-02-21T00:10:36;998.0;;;7.3;65.0
53940;BME280;39850;43.324;21.916;2023-02-21T00:15:13;998.0;;;7.3;65.0
53940;BME280;39850;43.324;21.916;2023-02-21T00:19:50;998.0;;;6.8;64.0
53940;BME280;39850;43.324;21.916;2023-02-21T00:24:26;998.0;;;6.8;64.0
53940;BME280;39850;43.324;21.916;2023-02-21T00:29:04;998.0;;;6.4;65.0
53940;BME280;39850;43.324;21.916;2023-02-21T00:33:41;998.0;;;6.4;65.0
53940;BME280;39850;43.324;21.916;2023-02-21T01:10:35;997.0;;;5.5;69.0
53940;BME280;39850;43.324;21.916;2023-02-21T01:15:12;997.0;;;5.5;69.0
53940;BME280;39850;43.324;21.916;2023-02-21T01:19:49;997.0;;;5.5;69.0
53940;BME280;39850;43.324;21.916;2023-02-21T01:24:26;997.0;;;5.5;69.0
53940;BME280;39850;43.324;21.916;2023-02-21T01:29:04;997.0;;;5.5;69.0
53940;BME280;39850;43.324;21.916;2023-02-21T01:33:42;997.0;;;5.5;69.0
53940;BME280;39850;43.324;21.916;2023-02-21T01:38:19;997.0;;;5.5;69.0
53940;BME280;39850;43.324;21.916;2023-02-21T01:42:56;997.0;;;5.5;69.0
53940;BME280;39850;43.324;21.916;2023-02-21T01:47:34;997.0;;;5.5;69.0
53940;BME280;39850;43.324;21.916;2023-02-21T01:52:12;997.0;;;5.5;69.0
53940;BME280;39850;43.324;21.916;2023-02-21T01:56:49;997.0;;;5.5;69.0
53940;BME280;39850;43.324;21.916;2023-02-21T02:35:04;996.0;;;5.1;70.0
53940;BME280;39850;43.324;21.916;2023-02-21T02:40:25;996.0;;;4.8;71.0
53940;BME280;39850;43.324;21.916;2023-02-21T02:45:32;996.0;;;4.8;71.0
53940;BME280;39850;43.324;21.916;2023-02-21T02:50:16;996.0;;;4.4;71.0
53940;BME280;39850;43.324;21.916;2023-02-21T02:55:42;996.0;;;4.4;71.0
53940;BME280;39850;43.324;21.916;2023-02-21T03:00:24;996.0;;;4.4;71.0
53940;BME280;39850;43.324;21.916;2023-02-21T03:06:03;996.0;;;4.4;71.0
53940;BME280;39850;43.324;21.916;2023-02-21T03:11:14;996.0;;;4.4;72.0
53940;BME280;39850;43.324;21.916;2023-02-21T03:16:23;996.0;;;4.4;72.0
53940;BME280;39850;43.324;21.916;2023-02-21T03:49:41;996.0;;;4.4;71.0
53940;BME280;39850;43.324;21.916;2023-02-21T03:54:17;996.0;;;4.4;71.0
53940;BME280;39850;43.324;21.916;2023-02-21T03:58:54;996.0;;;4.4;71.0
53940;BME280;39850;43.324;21.916;2023-02-21T04:03:31;996.0;;;4.4;71.0
53940;BME280;39850;43.324;21.916;2023-02-21T04:08:08;996.0;;;4.4;71.0
53940;BME280;39850;43.324;21.916;2023-02-21T04:12:47;996.0;;;4.5;71.0
53940;BME280;39850;43.324;21.916;2023-02-21T04:17:25;996.0;;;4.5;71.0
53940;BME280;39850;43.324;21.916;2023-02-21T04:22:02;996.0;;;4.5;72.0
53940;BME280;39850;43.324;21.916;2023-02-21T04:26:40;996.0;;;4.5;72.0
53940;BME280;39850;43.324;21.916;2023-02-21T04:31:19;996.0;;;4.5;72.0
53940;BME280;39850;43.324;21.916;2023-02-21T04:35:57;996.0;;;4.5;72.0
53940;BME280;39850;43.324;21.916;2023-02-21T05:12:51;996.0;;;3.5;73.0
53940;BME280;39850;43.324;21.916;2023-02-21T05:17:27;996.0;;;3.5;73.0
53940;BME280;39850;43.324;21.916;2023-02-21T05:22:04;996.0;;;3.5;73.0
53940;BME280;39850;43.324;21.916;2023-02-21T05:26:41;996.0;;;3.5;73.0
53940;BME280;39850;43.324;21.916;2023-02-21T05:31:18;996.0;;;3.5;73.0
53940;BME280;39850;43.324;21.916;2023-02-21T05:35:58;996.0;;;3.5;73.0
53940;BME280;39850;43.324;21.916;2023-02-21T05:40:34;996.0;;;3.5;73.0
53940;BME280;39850;43.324;21.916;2023-02-21T05:45:11;996.0;;;3.5;73.0
53940;BME280;39850;43.324;21.916;2023-02-21T05:49:47;996.0;;;3.5;73.0
53940;BME280;39850;43.324;21.916;2023-02-21T05:54:24;996.0;;;3.5;73.0
53940;BME280;39850;43.324;21.916;2023-02-21T06:31:21;996.0;;;3.5;76.0
53940;BME280;39850;43.324;21.916;2023-02-21T06:36:05;996.0;;;3.5;76.0
53940;BME280;39850;43.324;21.916;2023-02-21T06:40:42;996.0;;;3.6;75.0
53940;BME280;39850;43.324;21.916;2023-02-21T06:45:19;996.0;;;3.6;75.0
53940;BME280;39850;43.324;21.916;2023-02-21T06:49:56;996.0;;;3.7;75.0
53940;BME280;39850;43.324;21.916;2023-02-21T06:54:35;996.0;;;3.7;75.0
53940;BME280;39850;43.324;21.916;2023-02-21T06:59:12;996.0;;;4.1;74.0
53940;BME280;39850;43.324;21.916;2023-02-21T07:03:51;996.0;;;4.1;74.0
53940;BME280;39850;43.324;21.916;2023-02-21T07:08:28;996.0;;;4.1;74.0
53940;BME280;39850;43.324;21.916;2023-02-21T07:13:05;996.0;;;4.5;74.0
53940;BME280;39850;43.324;21.916;2023-02-21T07:17:42;996.0;;;4.5;74.0
53940;BME280;39850;43.324;21.916;2023-02-21T07:50:03;996.0;;;11.8;48.0
53940;BME280;39850;43.324;21.916;2023-02-21T07:54:39;996.0;;;11.8;48.0
53940;BME280;39850;43.324;21.916;2023-02-21T07:59:16;996.0;;;11.8;48.0
53940;BME280;39850;43.324;21.916;2023-02-21T08:03:53;996.0;;;11.8;48.0
53940;BME280;39850;43.324;21.916;2023-02-21T08:08:30;996.0;;;11.8;48.0
53940;BME280;39850;43.324;21.916;2023-02-21T08:13:07;996.0;;;11.5;50.0
53940;BME280;39850;43.324;21.916;2023-02-21T08:17:49;996.0;;;11.5;50.0
53940;BME280;39850;43.324;21.916;2023-02-21T08:22:26;996.0;;;11.2;52.0
53940;BME280;39850;43.324;21.916;2023-02-21T08:27:03;996.0;;;11.2;52.0
53940;BME280;39850;43.324;21.916;2023-02-21T08:31:42;996.0;;;11.2;52.0
53940;BME280;39850;43.324;21.916;2023-02-21T08:36:19;996.0;;;11.2;52.0
53940;BME280;39850;43.324;21.916;2023-02-21T09:13:18;995.0;;;12.6;47.0
53940;BME280;39850;43.324;21.916;2023-02-21T09:17:55;995.0;;;12.6;47.0
53940;BME280;39850;43.324;21.916;2023-02-21T09:22:33;995.0;;;12.6;49.0
53940;BME280;39850;43.324;21.916;2023-02-21T09:27:10;995.0;;;12.6;49.0
53940;BME280;39850;43.324;21.916;2023-02-21T09:31:48;995.0;;;12.6;49.0
53940;BME280;39850;43.324;21.916;2023-02-21T09:36:25;995.0;;;12.6;49.0
53940;BME280;39850;43.324;21.916;2023-02-21T09:41:12;995.0;;;13.0;49.0
53940;BME280;39850;43.324;21.916;2023-02-21T09:46:17;995.0;;;13.0;49.0
53940;BME280;39850;43.324;21.916;2023-02-21T09:51:16;995.0;;;13.5;49.0
53940;BME280;39850;43.324;21.916;2023-02-21T09:56:19;995.0;;;13.5;49.0
53940;BME280;39850;43.324;21.916;2023-02-21T10:32:09;994.0;;;16.3;44.0
53940;BME280;39850;43.324;21.916;2023-02-21T10:36:52;994.0;;;16.3;44.0
53940;BME280;39850;43.324;21.916;2023-02-21T10:41:40;994.0;;;16.2;44.0
53940;BME280;39850;43.324;21.916;2023-02-21T10:46:40;994.0;;;16.2;44.0
53940;BME280;39850;43.324;21.916;2023-02-21T10:51:34;994.0;;;16.3;44.0
53940;BME280;39850;43.324;21.916;2023-02-21T10:56:28;994.0;;;16.3;44.0
53940;BME280;39850;43.324;21.916;2023-02-21T11:01:20;994.0;;;16.4;45.0
53940;BME280;39850;43.324;21.916;2023-02-21T11:05:58;994.0;;;16.4;45.0
53940;BME280;39850;43.324;21.916;2023-02-21T11:10:43;994.0;;;16.7;46.0
53940;BME280;39850;43.324;21.916;2023-02-21T11:15:20;994.0;;;16.7;46.0
53940;BME280;39850;43.324;21.916;2023-02-21T11:54:42;992.0;;;17.2;39.0
53940;BME280;39850;43.324;21.916;2023-02-21T12:00:25;992.0;;;17.2;38.0
53940;BME280;39850;43.324;21.916;2023-02-21T12:06:04;992.0;;;17.2;38.0
53940;BME280;39850;43.324;21.916;2023-02-21T12:11:46;992.0;;;17.1;38.0
53940;BME280;39850;43.324;21.916;2023-02-21T12:17:53;992.0;;;17.1;38.0
53940;BME280;39850;43.324;21.916;2023-02-21T12:23:46;992.0;;;17.1;37.0
53940;BME280;39850;43.324;21.916;2023-02-21T12:30:05;992.0;;;17.1;38.0
53940;BME280;39850;43.324;21.916;2023-02-21T12:36:16;992.0;;;17.1;38.0
53940;BME280;39850;43.324;21.916;2023-02-21T13:12:35;991.0;;;18.2;33.0
53940;BME280;39850;43.324;21.916;2023-02-21T13:17:19;991.0;;;18.2;33.0
53940;BME280;39850;43.324;21.916;2023-02-21T13:25:18;991.0;;;18.2;33.0
53940;BME280;39850;43.324;21.916;2023-02-21T13:30:27;991.0;;;18.2;33.0
53940;BME280;39850;43.324;21.916;2023-02-21T13:35:38;991.0;;;18.2;33.0
53940;BME280;39850;43.324;21.916;2023-02-21T13:40:41;990.0;;;18.2;33.0
53940;BME280;39850;43.324;21.916;2023-02-21T13:45:30;990.0;;;18.2;33.0
53940;BME280;39850;43.324;21.916;2023-02-21T13:50:52;990.0;;;18.2;32.0
53940;BME280;39850;43.324;21.916;2023-02-21T13:55:31;990.0;;;18.2;32.0
53940;BME280;39850;43.324;21.916;2023-02-21T14:32:37;990.0;;;17.9;32.0
53940;BME280;39850;43.324;21.916;2023-02-21T14:37:39;990.0;;;17.9;32.0
53940;BME280;39850;43.324;21.916;2023-02-21T14:43:14;990.0;;;17.5;32.0
53940;BME280;39850;43.324;21.916;2023-02-21T14:49:32;990.0;;;17.5;32.0
53940;BME280;39850;43.324;21.916;2023-02-21T14:56:58;990.0;;;17.1;32.0
53940;BME280;39850;43.324;21.916;2023-02-21T15:02:51;990.0;;;17.1;32.0
53940;BME280;39850;43.324;21.916;2023-02-21T15:08:20;990.0;;;17.1;32.0
53940;BME280;39850;43.324;21.916;2023-02-21T15:13:05;990.0;;;17.1;32.0
53940;BME280;39850;43.324;21.916;2023-02-21T15:18:04;990.0;;;17.1;32.0
53940;BME280;39850;43.324;21.916;2023-02-21T15:51:24;990.0;;;17.3;33.0
53940;BME280;39850;43.324;21.916;2023-02-21T15:56:25;990.0;;;17.3;33.0
53940;BME280;39850;43.324;21.916;2023-02-21T16:01:11;990.0;;;17.3;34.0
53940;BME280;39850;43.324;21.916;2023-02-21T16:05:47;990.0;;;17.3;34.0
53940;BME280;39850;43.324;21.916;2023-02-21T16:10:25;990.0;;;17.3;34.0
53940;BME280;39850;43.324;21.916;2023-02-21T16:15:27;990.0;;;17.3;34.0
53940;BME280;39850;43.324;21.916;2023-02-21T16:20:27;990.0;;;17.3;34.0
53940;BME280;39850;43.324;21.916;2023-02-21T16:25:24;990.0;;;16.8;34.0
53940;BME280;39850;43.324;21.916;2023-02-21T16:30:01;990.0;;;16.8;34.0
53940;BME280;39850;43.324;21.916;2023-02-21T16:34:38;990.0;;;16.2;34.0
53940;BME280;39850;43.324;21.916;2023-02-21T16:39:15;990.0;;;16.2;34.0
53940;BME280;39850;43.324;21.916;2023-02-21T17:11:49;991.0;;;15.5;38.0
53940;BME280;39850;43.324;21.916;2023-02-21T17:16:26;991.0;;;15.5;38.0
53940;BME280;39850;43.324;21.916;2023-02-21T17:21:05;991.0;;;15.5;38.0
53940;BME280;39850;43.324;21.916;2023-02-21T17:25:43;991.0;;;15.5;38.0
53940;BME280;39850;43.324;21.916;2023-02-21T17:30:24;991.0;;;15.5;38.0
53940;BME280;39850;43.324;21.916;2023-02-21T17:35:01;991.0;;;15.5;38.0
53940;BME280;39850;43.324;21.916;2023-02-21T17:39:38;991.0;;;15.5;38.0
53940;BME280;39850;43.324;21.916;2023-02-21T17:44:18;991.0;;;15.1;39.0
53940;BME280;39850;43.324;21.916;2023-02-21T17:48:54;991.0;;;15.1;39.0
53940;BME280;39850;43.324;21.916;2023-02-21T17:53:32;991.0;;;14.7;40.0
53940;BME280;39850;43.324;21.916;2023-02-21T17:58:09;991.0;;;14.7;40.0
53940;BME280;39850;43.324;21.916;2023-02-21T18:35:05;991.0;;;13.7;44.0
53940;BME280;39850;43.324;21.916;2023-02-21T18:39:42;991.0;;;13.7;44.0
53940;BME280;39850;43.324;21.916;2023-02-21T18:44:19;992.0;;;13.7;44.0
53940;BME280;39850;43.324;21.916;2023-02-21T18:48:55;992.0;;;13.7;44.0
53940;BME280;39850;43.324;21.916;2023-02-21T18:53:32;992.0;;;13.7;44.0
53940;BME280;39850;43.324;21.916;2023-02-21T18:58:10;992.0;;;13.7;44.0
53940;BME280;39850;43.324;21.916;2023-02-21T19:02:46;992.0;;;13.2;45.0
53940;BME280;39850;43.324;21.916;2023-02-21T19:07:23;992.0;;;13.2;45.0
53940;BME280;39850;43.324;21.916;2023-02-21T19:12:00;992.0;;;12.6;46.0
53940;BME280;39850;43.324;21.916;2023-02-21T19:16:38;992.0;;;12.6;46.0
53940;BME280;39850;43.324;21.916;2023-02-21T19:53:37;992.0;;;11.8;48.0
53940;BME280;39850;43.324;21.916;2023-02-21T19:58:14;992.0;;;11.8;48.0
53940;BME280;39850;43.324;21.916;2023-02-21T20:02:52;992.0;;;11.8;48.0
53940;BME280;39850;43.324;21.916;2023-02-21T20:07:28;992.0;;;11.8;48.0
53940;BME280;39850;43.324;21.916;2023-02-21T20:12:07;992.0;;;11.8;48.0
53940;BME280;39850;43.324;21.916;2023-02-21T20:16:45;992.0;;;11.8;48.0
53940;BME280;39850;43.324;21.916;2023-02-21T20:21:29;992.0;;;11.8;49.0
53940;BME280;39850;43.324;21.916;2023-02-21T20:26:11;992.0;;;11.8;49.0
53940;BME280;39850;43.324;21.916;2023-02-21T20:30:49;992.0;;;11.8;49.0
53940;BME280;39850;43.324;21.916;2023-02-21T20:35:27;992.0;;;11.8;50.0
53940;BME280;39850;43.324;21.916;2023-02-21T20:40:07;992.0;;;11.8;50.0
53940;BME280;39850;43.324;21.916;2023-02-21T21:12:25;992.0;;;10.4;53.0
53940;BME280;39850;43.324;21.916;2023-02-21T21:17:05;992.0;;;10.4;53.0
53940;BME280;39850;43.324;21.916;2023-02-21T21:21:42;992.0;;;10.1;53.0
53940;BME280;39850;43.324;21.916;2023-02-21T21:26:19;992.0;;;10.1;53.0
53940;BME280;39850;43.324;21.916;2023-02-21T21:30:56;992.0;;;10.1;53.0
53940;BME280;39850;43.324;21.916;2023-02-21T21:35:33;992.0;;;10.0;53.0
53940;BME280;39850;43.324;21.916;2023-02-21T21:40:11;992.0;;;10.0;53.0
53940;BME280;39850;43.324;21.916;2023-02-21T21:44:55;992.0;;;9.9;54.0
53940;BME280;39850;43.324;21.916;2023-02-21T21:49:32;992.0;;;9.9;54.0
53940;BME280;39850;43.324;21.916;2023-02-21T21:54:10;992.0;;;10.0;56.0
53940;BME280;39850;43.324;21.916;2023-02-21T21:58:46;992.0;;;10.0;56.0
53940;BME280;39850;43.324;21.916;2023-02-21T22:45:09;992.0;;;9.0;58.0
53940;BME280;39850;43.324;21.916;2023-02-21T22:49:45;992.0;;;9.0;58.0
53940;BME280;39850;43.324;21.916;2023-02-21T22:54:22;992.0;;;9.0;59.0
53940;BME280;39850;43.324;21.916;2023-02-21T22:58:59;992.0;;;9.0;59.0
53940;BME280;39850;43.324;21.916;2023-02-21T23:03:36;992.0;;;9.0;59.0
53940;BME280;39850;43.324;21.916;2023-02-21T23:08:21;992.0;;;9.0;59.0
53940;BME280;39850;43.324;21.916;2023-02-21T23:12:59;992.0;;;9.1;60.0
53940;BME280;39850;43.324;21.916;2023-02-21T23:17:36;992.0;;;9.1;60.0
53940;BME280;39850;43.324;21.916;2023-02-21T23:54:45;993.0;;;8.0;60.0
53940;BME280;39850;43.324;21.916;2023-02-21T23:59:21;993.0;;;8.0;60.0
